CheckWX is a tool to help pilots better visualize weather data.  It is not intended as a substitute for an official pre-flight weather briefing.

00:31:33 UTC

KGAI METAR
Montgomery County Airpark
Gaithersburg, Maryland, USA
Current

36 mins ago

KGAI 162356Z AUTO 00000KT 10SM CLR 25/18 A3000 RMK AO2 SLP169 T02500183 10322 20250 53005
Observed
Sep-16 @ 23:56 UTC
Visibility
10 SM
Flight Rules
VFR
Cloud Levels
  • Clear skies
Temperature
25°C / 77°F
Dewpoint
18°C / 64°F
Humidity
65%
Altimeter
30" Hg
Pressure
1015.92 hPa
Previous

2 hours ago

KGAI 162256Z AUTO VRB03KT 10SM OVC110 28/18 A2999 RMK AO2 SLP165 T02780178
Observed
Sep-16 @ 22:56 UTC
Wind
  • Variable at 3 KTS
Visibility
10 SM
Flight Rules
VFR
Cloud Levels
  • Overcast at 11,000' AGL
Temperature
28°C / 82°F
Dewpoint
18°C / 64°F
Heat Index
29°C / 84°F
Humidity
55%
Altimeter
29.99" Hg
Pressure
1015.62 hPa
Previous

3 hours ago

KGAI 162156Z AUTO 00000KT 10SM OVC110 29/18 A2998 RMK AO2 SLP162 T02890183
Observed
Sep-16 @ 21:56 UTC
Visibility
10 SM
Flight Rules
VFR
Cloud Levels
  • Overcast at 11,000' AGL
Temperature
29°C / 84°F
Dewpoint
18°C / 64°F
Heat Index
29°C / 85°F
Humidity
51%
Altimeter
29.98" Hg
Pressure
1015.22 hPa